Time;durP1;ratioP1;P1;durP2;ratioP2;P2;SDS_P1;SDS_P2;PMS_P1;PMS_P2;Temp;Humidity;BMP_temperature;BMP_pressure;BME280_temperature;BME280_humidity;BME280_pressure;Samples;Min_cycle;Max_cycle;Signal;HPM_P1;HPM_P2
2022/11/04 00:01:41;;;;;;;4.10;0.60;;;10.40;99.90;;;;;;4988374;28;20409;-73
2022/11/04 00:04:11;;;;;;;2.47;0.52;;;10.40;99.90;;;;;;4987732;28;20066;-73
2022/11/04 00:06:37;;;;;;;2.13;0.60;;;10.40;99.90;;;;;;4989404;28;20098;-73
2022/11/04 00:09:04;;;;;;;1.23;0.52;;;10.40;99.90;;;;;;4988635;28;20050;-73
2022/11/04 00:14:18;;;;;;;5.53;0.70;;;10.40;99.90;;;;;;4986385;28;20047;-73
2022/11/04 00:19:28;;;;;;;4.68;0.77;;;10.50;99.90;;;;;;4986012;28;20038;-73
2022/11/04 00:29:59;;;;;;;3.65;0.75;;;10.40;99.90;;;;;;4988287;28;20046;-73
2022/11/04 00:35:10;;;;;;;4.25;1.00;;;10.70;99.90;;;;;;4985815;28;19926;-73
2022/11/04 00:37:37;;;;;;;6.30;0.90;;;10.70;99.90;;;;;;4983752;28;20038;-73
2022/11/04 00:40:04;;;;;;;7.53;0.90;;;10.40;99.90;;;;;;4992088;28;20470;-73
2022/11/04 00:42:30;;;;;;;6.28;0.90;;;10.40;99.90;;;;;;4991268;28;20447;-74
2022/11/04 00:44:55;;;;;;;;;;;10.40;99.90;;;;;;4992902;28;20058;-73
2022/11/04 00:47:21;;;;;;;5.35;0.80;;;10.40;99.90;;;;;;4991708;28;19921;-74
2022/11/04 00:49:46;;;;;;;4.82;0.80;;;10.40;99.90;;;;;;4992560;28;20034;-74
2022/11/04 00:52:12;;;;;;;2.67;0.70;;;10.40;99.90;;;;;;4994619;28;20538;-74
2022/11/04 00:54:38;;;;;;;3.65;0.85;;;10.30;99.90;;;;;;4990646;28;20095;-74
2022/11/04 00:57:03;;;;;;;6.38;0.95;;;10.40;99.90;;;;;;4992475;28;20038;-74
2022/11/04 00:59:29;;;;;;;3.88;0.85;;;10.40;99.90;;;;;;4991307;28;20485;-74
2022/11/04 01:01:55;;;;;;;;;;;10.40;99.90;;;;;;4992961;28;20053;-75
2022/11/04 01:04:20;;;;;;;6.97;0.80;;;10.40;99.90;;;;;;4992431;28;19953;-74
2022/11/04 01:06:46;;;;;;;;;;;10.40;99.90;;;;;;4990476;28;20046;-75
2022/11/04 01:09:12;;;;;;;2.63;0.60;;;10.40;99.90;;;;;;4992564;28;20280;-74
2022/11/04 01:11:40;;;;;;;3.03;1.30;;;10.40;99.90;;;;;;4991574;28;20532;-74
2022/11/04 01:14:06;;;;;;;;;;;10.40;99.90;;;;;;4991884;28;20082;-74
2022/11/04 01:16:32;;;;;;;6.68;0.88;;;10.40;99.90;;;;;;4992018;28;19921;-74
2022/11/04 01:18:58;;;;;;;;;;;10.50;99.90;;;;;;4992587;28;20061;-74
2022/11/04 01:21:23;;;;;;;3.72;0.80;;;10.50;99.90;;;;;;4992440;28;20016;-74
2022/11/04 01:23:49;;;;;;;;;;;10.50;99.90;;;;;;4993696;28;20490;-74
2022/11/04 01:26:23;;;;;;;6.38;1.10;;;10.50;99.90;;;;;;4992398;28;19921;-74
2022/11/04 01:28:50;;;;;;;6.93;1.08;;;10.50;99.90;;;;;;4991507;28;20445;-74
2022/11/04 01:31:22;;;;;;;4.38;0.75;;;10.50;99.90;;;;;;4991371;28;20077;-75
2022/11/04 01:33:49;;;;;;;4.32;0.82;;;11.60;99.90;;;;;;4991981;28;20458;-74
2022/11/04 01:36:19;;;;;;;6.13;0.88;;;10.50;99.90;;;;;;4989844;28;20486;-74
2022/11/04 01:38:44;;;;;;;7.05;0.98;;;10.40;99.90;;;;;;4992137;28;20516;-72
2022/11/04 01:41:15;;;;;;;;;;;10.40;99.90;;;;;;4994255;28;20038;-72
2022/11/04 01:43:51;;;;;;;5.65;0.80;;;10.80;99.90;;;;;;4990987;28;19918;-73
2022/11/04 01:46:41;;;;;;;4.38;0.77;;;10.40;99.90;;;;;;4990505;28;20485;-72
2022/11/04 01:49:27;;;;;;;7.55;0.90;;;10.40;99.90;;;;;;4988843;28;20103;-72
2022/11/04 01:51:57;;;;;;;2.63;0.80;;;10.40;99.90;;;;;;4992201;28;20461;-72
2022/11/04 01:54:26;;;;;;;3.42;1.55;;;10.40;99.90;;;;;;4987853;28;20046;-72
2022/11/04 01:56:53;;;;;;;3.22;1.00;;;10.40;99.90;;;;;;4989215;28;20379;-73
2022/11/04 01:59:27;;;;;;;3.95;0.60;;;10.40;99.90;;;;;;4991548;28;20046;-74
2022/11/04 02:01:53;;;;;;;2.78;0.68;;;10.40;99.90;;;;;;4987498;28;20118;-73
2022/11/04 02:04:25;;;;;;;;;;;10.40;99.90;;;;;;4994394;28;20490;-74
2022/11/04 02:06:56;;;;;;;4.05;0.80;;;10.40;99.90;;;;;;4987049;28;19921;-74
2022/11/04 02:09:24;;;;;;;6.63;1.00;;;10.40;99.90;;;;;;4986728;28;20434;-74
2022/11/04 02:14:35;;;;;;;6.13;0.90;;;10.30;99.90;;;;;;4988827;28;20050;-74
2022/11/04 02:17:14;;;;;;;3.65;0.90;;;10.30;99.90;;;;;;4990587;28;20149;-74
2022/11/04 02:20:01;;;;;;;3.00;0.75;;;10.30;99.90;;;;;;4992317;28;20034;-74
2022/11/04 02:22:57;;;;;;;1.55;0.73;;;10.30;99.90;;;;;;4989058;28;20389;-74
2022/11/04 02:25:54;;;;;;;6.63;0.80;;;10.30;99.90;;;;;;4987221;28;20042;-74
2022/11/04 02:28:25;;;;;;;3.60;0.90;;;10.30;99.90;;;;;;4987216;28;20076;-74
2022/11/04 02:31:19;;;;;;;4.32;0.80;;;10.30;99.90;;;;;;4987041;28;20051;-74
2022/11/04 02:33:47;;;;;;;5.38;0.85;;;10.30;99.90;;;;;;4990656;28;20443;-74
2022/11/04 02:36:39;;;;;;;3.67;0.60;;;10.20;99.90;;;;;;4991056;28;20081;-75
2022/11/04 02:39:17;;;;;;;4.43;0.80;;;10.30;99.90;;;;;;4988902;28;20463;-73
2022/11/04 02:41:58;;;;;;;2.92;1.00;;;10.20;99.90;;;;;;4991090;28;20359;-74
2022/11/04 02:44:40;;;;;;;2.95;0.70;;;10.20;99.90;;;;;;4986605;28;20137;-73
2022/11/04 02:47:20;;;;;;;3.00;0.80;;;10.20;99.90;;;;;;4990774;28;20104;-74
2022/11/04 02:50:20;;;;;;;2.90;0.70;;;10.30;99.90;;;;;;4987378;28;20042;-73
2022/11/04 02:52:53;;;;;;;4.22;0.85;;;10.20;99.90;;;;;;4991175;28;20490;-74
2022/11/04 02:55:43;;;;;;;3.70;0.70;;;10.30;99.90;;;;;;4986049;28;20064;-73
2022/11/04 02:58:14;;;;;;;2.42;0.75;;;10.30;99.90;;;;;;4994403;28;20114;-73
2022/11/04 03:00:42;;;;;;;4.22;0.73;;;10.30;99.90;;;;;;4989600;28;20034;-73
2022/11/04 03:03:12;;;;;;;5.20;0.70;;;10.30;99.90;;;;;;4989637;28;20070;-74
2022/11/04 03:05:41;;;;;;;10.80;1.20;;;10.60;99.90;;;;;;4991012;28;20042;-74
2022/11/04 03:08:29;;;;;;;2.60;0.63;;;10.40;99.90;;;;;;4989676;28;20073;-74
2022/11/04 03:11:12;;;;;;;6.18;1.08;;;10.40;99.90;;;;;;4988546;28;20507;-74
2022/11/04 03:13:42;;;;;;;4.53;0.88;;;10.30;99.90;;;;;;4987673;28;20655;-74
2022/11/04 03:16:16;;;;;;;3.10;0.60;;;10.30;99.90;;;;;;4990359;28;20046;-74
2022/11/04 03:19:00;;;;;;;3.22;0.65;;;10.40;99.90;;;;;;4988923;28;20481;-73
2022/11/04 03:21:27;;;;;;;2.53;0.70;;;10.20;99.90;;;;;;4987496;28;20039;-74
2022/11/04 03:23:54;;;;;;;4.65;0.77;;;10.10;99.90;;;;;;4990639;28;20046;-73
2022/11/04 03:26:53;;;;;;;5.32;0.93;;;10.10;99.90;;;;;;4990021;28;20034;-73
2022/11/04 03:29:26;;;;;;;4.32;1.00;;;10.10;99.90;;;;;;4986255;28;20137;-73
2022/11/04 03:32:22;;;;;;;4.53;0.90;;;10.10;99.90;;;;;;4989751;28;20101;-73
2022/11/04 03:34:48;;;;;;;2.10;0.60;;;10.10;99.90;;;;;;4986851;28;20050;-73
2022/11/04 03:37:13;;;;;;;4.20;0.75;;;10.10;99.90;;;;;;4989824;28;20043;-73
2022/11/04 03:39:39;;;;;;;;;;;10.10;99.90;;;;;;4990304;28;20042;-73
2022/11/04 03:42:19;;;;;;;1.90;0.60;;;10.10;99.90;;;;;;4989099;28;19941;-73
2022/11/04 03:44:49;;;;;;;2.83;0.60;;;10.10;99.90;;;;;;4987465;28;20049;-73
2022/11/04 03:47:17;;;;;;;5.20;0.80;;;10.00;99.90;;;;;;4989744;28;20035;-73
2022/11/04 03:49:44;;;;;;;4.30;0.90;;;9.90;99.90;;;;;;4989083;28;20042;-73
2022/11/04 03:52:14;;;;;;;2.13;0.77;;;10.00;99.90;;;;;;4989779;28;20389;-74
2022/11/04 03:54:40;;;;;;;3.67;0.80;;;9.90;99.90;;;;;;4989662;28;20038;-72
2022/11/04 03:57:19;;;;;;;3.08;0.80;;;9.90;99.90;;;;;;4988684;28;20489;-74
2022/11/04 03:59:59;;;;;;;;;;;9.90;99.90;;;;;;4990222;28;20121;-73
2022/11/04 04:02:46;;;;;;;3.15;0.80;;;9.90;99.90;;;;;;4987356;28;19967;-73
2022/11/04 04:05:40;;;;;;;2.45;0.80;;;9.90;99.90;;;;;;4987186;28;20047;-74
2022/11/04 04:08:40;;;;;;;6.60;1.38;;;9.90;99.90;;;;;;4985382;28;20054;-74
2022/11/04 04:11:30;;;;;;;3.30;0.73;;;9.90;99.90;;;;;;4988129;28;20121;-73
2022/11/04 04:14:40;;;;;;;5.63;0.75;;;9.90;99.90;;;;;;4989152;28;20064;-73
2022/11/04 04:17:31;;;;;;;2.08;0.70;;;9.90;99.90;;;;;;4984490;28;20050;-74
2022/11/04 04:20:08;;;;;;;2.78;0.82;;;9.90;99.90;;;;;;4978245;28;20095;-73
2022/11/04 04:22:49;;;;;;;2.22;0.68;;;9.90;99.90;;;;;;4984703;28;20042;-73
2022/11/04 04:28:03;;;;;;;2.22;0.60;;;9.90;99.90;;;;;;4987642;28;20051;-73
2022/11/04 04:30:29;;;;;;;5.05;0.90;;;9.90;99.90;;;;;;4984125;28;20142;-73
2022/11/04 04:33:00;;;;;;;;;;;9.90;99.90;;;;;;4989954;28;20537;-73
2022/11/04 04:35:41;;;;;;;2.17;0.70;;;9.90;99.90;;;;;;4988939;28;19925;-73
2022/11/04 04:47:20;;;;;;;2.58;0.60;;;9.90;99.90;;;;;;4987636;28;20050;-73
2022/11/04 04:50:05;;;;;;;2.03;0.77;;;9.90;99.90;;;;;;4989440;28;20050;-74
2022/11/04 04:52:40;;;;;;;1.92;0.75;;;9.90;99.90;;;;;;4983821;28;20046;-74
2022/11/04 04:55:07;;;;;;;5.00;0.70;;;9.90;99.90;;;;;;4993882;28;20046;-81
2022/11/04 04:57:33;;;;;;;3.42;0.60;;;9.80;99.90;;;;;;4989580;28;20326;-73
2022/11/04 04:59:58;;;;;;;;;;;9.70;99.90;;;;;;4988796;28;20480;-74
2022/11/04 05:02:24;;;;;;;3.45;0.52;;;9.70;99.90;;;;;;4987274;28;19918;-74
2022/11/04 05:04:49;;;;;;;;;;;9.60;99.90;;;;;;4989599;28;20034;-75
2022/11/04 05:07:15;;;;;;;4.68;0.80;;;9.90;99.90;;;;;;4991835;28;19930;-74
2022/11/04 05:09:41;;;;;;;2.03;0.60;;;9.60;99.90;;;;;;4988653;28;20073;-74
2022/11/04 05:12:07;;;;;;;;;;;9.50;99.90;;;;;;4989486;28;20078;-73
2022/11/04 05:14:32;;;;;;;2.67;0.63;;;9.50;99.90;;;;;;4987609;28;20408;-73
2022/11/04 05:16:58;;;;;;;;;;;9.50;99.90;;;;;;4988734;28;20056;-73
2022/11/04 05:19:23;;;;;;;1.23;0.43;;;9.40;99.90;;;;;;4987474;28;19922;-74
2022/11/04 05:21:49;;;;;;;;;;;9.40;99.90;;;;;;4987161;28;20042;-75
2022/11/04 05:24:36;;;;;;;3.65;0.80;;;9.40;99.90;;;;;;4988690;28;19922;-74
2022/11/04 05:27:04;;;;;;;3.55;1.13;;;9.40;99.90;;;;;;4989155;28;20130;-75
2022/11/04 05:29:29;;;;;;;3.97;0.68;;;9.40;99.90;;;;;;4995721;28;20497;-75
2022/11/04 05:31:55;;;;;;;;;;;9.40;99.90;;;;;;4992559;28;20064;-75
2022/11/04 05:34:21;;;;;;;2.95;0.63;;;9.50;99.90;;;;;;4990910;28;20008;-74
2022/11/04 05:36:46;;;;;;;;;;;9.30;99.90;;;;;;4993424;28;20074;-73
2022/11/04 05:39:15;;;;;;;2.65;0.80;;;9.30;99.90;;;;;;4990514;28;19926;-75
2022/11/04 05:41:41;;;;;;;3.88;0.98;;;9.30;99.90;;;;;;4990621;28;20496;-75
2022/11/04 05:44:08;;;;;;;;;;;9.40;99.90;;;;;;4993377;28;20046;-75
2022/11/04 05:46:34;;;;;;;2.60;0.70;;;9.50;99.90;;;;;;4991470;28;20005;-74
2022/11/04 05:48:59;;;;;;;;;;;9.50;99.90;;;;;;4989806;28;20148;-74
2022/11/04 05:51:27;;;;;;;6.35;1.00;;;9.70;99.90;;;;;;4989764;28;20336;-74
2022/11/04 05:53:53;;;;;;;3.88;0.90;;;9.50;99.90;;;;;;4991438;28;20508;-73
2022/11/04 05:56:18;;;;;;;;;;;9.50;99.90;;;;;;4991933;28;20054;-75
2022/11/04 05:58:47;;;;;;;5.32;0.93;;;9.50;99.90;;;;;;4987048;28;19922;-76
2022/11/04 06:01:23;;;;;;;;;;;9.50;99.90;;;;;;4992214;28;20501;-72
2022/11/04 06:03:49;;;;;;;2.25;0.80;;;9.50;99.90;;;;;;4985533;28;20532;-69
2022/11/04 06:06:14;;;;;;;;;;;9.50;99.90;;;;;;4994297;28;20077;-74
2022/11/04 06:08:43;;;;;;;4.40;0.80;;;9.40;99.90;;;;;;4989337;28;20380;-70
2022/11/04 06:11:09;;;;;;;3.75;0.90;;;9.30;99.90;;;;;;4986473;28;20100;-69
2022/11/04 06:13:35;;;;;;;;;;;9.30;99.90;;;;;;4989293;28;20062;-70
2022/11/04 06:16:03;;;;;;;6.03;0.98;;;9.20;99.90;;;;;;4989441;28;19922;-71
2022/11/04 06:18:29;;;;;;;5.60;1.10;;;9.10;99.90;;;;;;4990479;28;20046;-75
2022/11/04 06:21:10;;;;;;;;;;;9.10;99.90;;;;;;4990177;28;20034;-71
2022/11/04 06:23:35;;;;;;;6.35;1.00;;;9.10;99.90;;;;;;4989745;28;19921;-74
2022/11/04 06:26:01;;;;;;;;;;;9.00;99.90;;;;;;4991257;28;20176;-72
2022/11/04 06:28:27;;;;;;;3.80;0.93;;;8.90;99.90;;;;;;4990516;28;19929;-73
2022/11/04 06:31:00;;;;;;;1.38;0.80;;;9.30;99.90;;;;;;4989686;28;20485;-75
2022/11/04 06:33:27;;;;;;;3.03;0.82;;;8.80;99.90;;;;;;4987846;28;20076;-73
2022/11/04 06:35:56;;;;;;;2.95;0.65;;;9.00;99.90;;;;;;4989891;28;20504;-74
2022/11/04 06:38:22;;;;;;;1.77;0.85;;;8.70;99.90;;;;;;4989472;28;20195;-75
2022/11/04 06:40:47;;;;;;;;;;;8.60;99.90;;;;;;4990258;28;20117;-81
2022/11/04 06:43:13;;;;;;;3.40;0.73;;;8.50;99.90;;;;;;4989526;28;19922;-76
2022/11/04 06:45:39;;;;;;;;;;;8.50;99.90;;;;;;4990618;28;20411;-77
2022/11/04 06:48:05;;;;;;;1.33;0.70;;;8.50;99.90;;;;;;4985941;28;19922;-77
2022/11/04 06:50:30;;;;;;;3.95;1.20;;;8.40;99.90;;;;;;4990903;28;20450;-79
2022/11/04 06:52:56;;;;;;;;;;;8.40;99.90;;;;;;5014083;28;20081;-77
2022/11/04 06:55:22;;;;;;;13.02;3.65;;;8.30;99.90;;;;;;4990659;28;20000;-78
2022/11/04 06:57:47;;;;;;;;;;;8.30;99.90;;;;;;4989581;28;20057;-78
2022/11/04 07:00:13;;;;;;;17.88;5.50;;;8.50;99.90;;;;;;4990324;28;19947;-76
2022/11/04 07:02:39;;;;;;;14.48;4.28;;;8.20;99.90;;;;;;4992793;28;20042;-74
2022/11/04 07:05:05;;;;;;;;;;;8.20;99.90;;;;;;4990743;28;20050;-75
2022/11/04 07:07:31;;;;;;;6.10;2.17;;;8.20;99.90;;;;;;4990443;28;19921;-75
2022/11/04 07:09:56;;;;;;;;;;;8.10;99.90;;;;;;4992447;28;20057;-78
2022/11/04 07:12:23;;;;;;;3.85;1.30;;;8.00;99.90;;;;;;4990442;28;19922;-77
2022/11/04 07:14:50;;;;;;;3.55;1.17;;;8.00;99.90;;;;;;4992020;28;20111;-78
2022/11/04 07:17:15;;;;;;;2.22;0.90;;;8.00;99.90;;;;;;4990481;28;20042;-81
2022/11/04 07:19:41;;;;;;;;;;;8.00;99.90;;;;;;4989455;28;20385;-74
2022/11/04 07:22:07;;;;;;;2.85;0.82;;;8.00;99.90;;;;;;4990948;28;19918;-73
2022/11/04 07:24:33;;;;;;;;;;;7.90;99.90;;;;;;5002662;28;20134;-78
2022/11/04 07:26:58;;;;;;;4.43;0.90;;;7.90;99.90;;;;;;4991775;28;20012;-81
2022/11/04 07:29:24;;;;;;;;;;;7.90;99.90;;;;;;4996477;28;20038;-86
2022/11/04 07:31:50;;;;;;;5.72;0.90;;;7.90;99.90;;;;;;4993614;28;19973;-75
2022/11/04 07:34:16;;;;;;;;;;;7.90;99.90;;;;;;5001041;28;20073;-79
2022/11/04 07:36:41;;;;;;;3.67;0.80;;;8.00;99.90;;;;;;5003385;28;19922;-75
2022/11/04 07:39:07;;;;;;;;;;;8.00;99.90;;;;;;5004590;28;20121;-76
2022/11/04 07:41:32;;;;;;;4.05;1.08;;;8.10;99.90;;;;;;4999941;28;19921;-78
2022/11/04 07:43:59;;;;;;;;;;;8.10;99.90;;;;;;4988595;28;20107;-75
2022/11/04 07:46:25;;;;;;;3.00;1.20;;;8.20;99.90;;;;;;5029265;27;19929;-72
2022/11/04 07:48:51;;;;;;;;;;;8.20;99.90;;;;;;4992802;28;20042;-73
2022/11/04 07:51:19;;;;;;;3.22;1.02;;;8.30;99.90;;;;;;4989273;28;19944;-74
2022/11/04 07:53:45;;;;;;;3.03;1.00;;;8.50;99.90;;;;;;4989321;28;20053;-74
2022/11/04 07:56:11;;;;;;;;;;;8.60;99.90;;;;;;4989604;28;20046;-74
2022/11/04 07:58:37;;;;;;;3.90;1.10;;;8.60;99.90;;;;;;4988951;28;20001;-74
2022/11/04 08:01:15;;;;;;;;;;;8.70;99.90;;;;;;4989737;28;20297;-75
2022/11/04 08:03:40;;;;;;;3.17;1.10;;;9.20;99.90;;;;;;4986932;28;20010;-75
2022/11/04 08:06:07;;;;;;;;;;;9.80;99.90;;;;;;5009683;28;20163;-76
2022/11/04 08:08:33;;;;;;;5.97;1.58;;;10.10;99.90;;;;;;5019030;27;20323;-75
2022/11/04 08:11:12;;;;;;;4.97;1.13;;;10.50;99.90;;;;;;4989776;28;20386;-75
2022/11/04 08:13:38;;;;;;;3.53;1.10;;;10.80;99.90;;;;;;4989000;28;20133;-76
2022/11/04 08:16:11;;;;;;;2.80;1.10;;;11.40;99.90;;;;;;4989189;28;20238;-75
2022/11/04 08:18:37;;;;;;;5.43;1.10;;;12.00;99.90;;;;;;4988866;28;20050;-75
2022/11/04 08:21:03;;;;;;;;;;;12.10;99.90;;;;;;4989836;28;20039;-75
2022/11/04 08:23:30;;;;;;;5.20;1.25;;;11.90;99.90;;;;;;5005006;28;19922;-73
2022/11/04 08:25:55;;;;;;;3.45;1.10;;;11.70;99.90;;;;;;4986743;28;20042;-74
2022/11/04 08:28:24;;;;;;;;;;;11.30;99.90;;;;;;4995319;28;20466;-75
2022/11/04 08:31:00;;;;;;;4.75;1.10;;;11.90;99.90;;;;;;4997526;28;19922;-75
2022/11/04 08:33:26;;;;;;;3.45;1.80;;;10.90;99.90;;;;;;4991309;28;20045;-79
2022/11/04 08:35:54;;;;;;;5.75;1.20;;;10.70;99.90;;;;;;4993414;28;20043;-78
2022/11/04 08:38:20;;;;;;;2.95;1.00;;;10.80;99.90;;;;;;4987834;28;20046;-77
2022/11/04 08:40:46;;;;;;;;;;;10.40;99.90;;;;;;4985786;28;20041;-77
2022/11/04 08:43:11;;;;;;;10.05;1.45;;;10.30;99.90;;;;;;4988755;28;20642;-77
2022/11/04 08:45:39;;;;;;;4.63;1.10;;;10.20;99.90;;;;;;4987444;28;20046;-77
2022/11/04 08:48:05;;;;;;;5.78;1.40;;;10.10;99.90;;;;;;4988051;28;20083;-77
2022/11/04 08:50:33;;;;;;;;;;;10.10;99.90;;;;;;4988948;28;20478;-77
2022/11/04 08:53:02;;;;;;;6.30;2.42;;;10.20;99.90;;;;;;4987761;28;19964;-78
2022/11/04 08:55:28;;;;;;;6.30;1.77;;;10.50;99.90;;;;;;4988834;28;20039;-77
2022/11/04 08:57:54;;;;;;;3.90;1.63;;;10.70;99.90;;;;;;4988309;28;20483;-78
2022/11/04 09:00:23;;;;;;;8.10;2.10;;;11.00;99.90;;;;;;4987323;28;20039;-77
2022/11/04 09:02:48;;;;;;;;;;;11.00;99.90;;;;;;4992693;28;20087;-78
2022/11/04 09:05:14;;;;;;;3.00;1.45;;;11.20;99.90;;;;;;4992127;28;20289;-77
2022/11/04 09:07:41;;;;;;;4.35;1.42;;;11.30;99.90;;;;;;4992006;28;20035;-78
2022/11/04 09:10:09;;;;;;;4.68;1.20;;;11.40;99.90;;;;;;4992302;28;20501;-78
2022/11/04 09:12:35;;;;;;;4.10;1.95;;;11.40;99.90;;;;;;4991052;28;20050;-78
2022/11/04 09:15:02;;;;;;;8.65;2.00;;;11.60;99.90;;;;;;4993082;28;20104;-78
2022/11/04 09:17:28;;;;;;;4.10;1.42;;;12.30;99.90;;;;;;4991471;28;20039;-79
2022/11/04 09:19:54;;;;;;;4.93;1.30;;;13.40;99.90;;;;;;4992249;28;20069;-79
2022/11/04 09:22:19;;;;;;;;;;;14.30;99.90;;;;;;4992058;28;20160;-78
2022/11/04 09:24:48;;;;;;;3.72;1.10;;;14.60;99.90;;;;;;4992552;28;20384;-78
2022/11/04 09:27:13;;;;;;;4.95;1.52;;;14.80;99.90;;;;;;4991558;28;20420;-79
2022/11/04 09:29:39;;;;;;;5.03;1.55;;;14.40;99.90;;;;;;4994663;28;20049;-79
2022/11/04 09:32:06;;;;;;;7.82;2.80;;;14.10;99.90;;;;;;4992918;28;20041;-78
2022/11/04 09:34:33;;;;;;;3.95;1.30;;;13.80;99.90;;;;;;4990060;28;20051;-78
2022/11/04 09:37:01;;;;;;;4.15;1.15;;;14.20;99.90;;;;;;4992230;28;20054;-79
2022/11/04 09:39:36;;;;;;;8.13;1.95;;;13.30;99.90;;;;;;4996455;28;20039;-80
2022/11/04 09:42:23;;;;;;;6.72;1.65;;;13.00;99.90;;;;;;5000419;28;20080;-79
2022/11/04 09:45:01;;;;;;;6.75;2.03;;;12.60;99.90;;;;;;4997989;28;20389;-79
2022/11/04 09:47:30;;;;;;;4.97;1.48;;;12.30;99.90;;;;;;4992074;28;20043;-79
2022/11/04 09:50:01;;;;;;;8.35;1.85;;;12.00;99.90;;;;;;4992076;28;20054;-79
2022/11/04 09:52:31;;;;;;;4.78;1.00;;;11.90;99.90;;;;;;4991350;28;20394;-79
2022/11/04 09:55:06;;;;;;;2.17;0.85;;;11.50;99.90;;;;;;4990919;28;20493;-79
2022/11/04 09:57:32;;;;;;;3.30;1.10;;;11.30;99.90;;;;;;4990931;28;20046;-79
2022/11/04 09:59:59;;;;;;;4.13;1.10;;;11.60;99.90;;;;;;4990045;28;20042;-78
2022/11/04 10:02:39;;;;;;;2.67;0.98;;;10.90;99.90;;;;;;4989187;28;20478;-78
2022/11/04 10:05:40;;;;;;;4.10;1.08;;;10.80;99.90;;;;;;4986904;28;20046;-78
2022/11/04 10:08:19;;;;;;;5.22;1.00;;;10.80;99.90;;;;;;5012973;28;20057;-78
2022/11/04 10:10:48;;;;;;;5.45;1.10;;;10.80;99.90;;;;;;4991621;28;20054;-79
2022/11/04 10:13:28;;;;;;;3.42;1.13;;;10.90;99.90;;;;;;4990523;28;20133;-79
2022/11/04 10:16:17;;;;;;;6.57;1.95;;;12.30;99.90;;;;;;4990559;28;20099;-79
2022/11/04 10:19:03;;;;;;;4.20;1.05;;;14.30;99.90;;;;;;4989858;28;20664;-79
2022/11/04 10:22:07;;;;;;;3.28;1.13;;;15.80;99.90;;;;;;4990081;28;20053;-79
2022/11/04 10:24:40;;;;;;;5.72;1.67;;;15.60;99.90;;;;;;5042736;28;20099;-79
2022/11/04 10:27:16;;;;;;;5.18;1.48;;;14.70;99.90;;;;;;4995600;28;20405;-79
2022/11/04 10:29:44;;;;;;;5.65;2.08;;;14.10;99.90;;;;;;4991240;28;20121;-77
2022/11/04 10:32:18;;;;;;;4.07;1.60;;;13.60;99.90;;;;;;4989940;28;20056;-78
2022/11/04 10:35:00;;;;;;;5.05;3.13;;;13.30;99.90;;;;;;4991152;28;20078;-78
2022/11/04 10:37:27;;;;;;;5.10;1.88;;;13.10;99.90;;;;;;4984528;28;20061;-78
2022/11/04 10:40:05;;;;;;;4.60;1.60;;;14.30;99.90;;;;;;4992754;28;20409;-78
2022/11/04 10:42:34;;;;;;;6.20;1.80;;;16.30;99.90;;;;;;4989894;28;20064;-78
2022/11/04 10:45:00;;;;;;;4.22;1.10;;;18.40;99.90;;;;;;4990119;28;20047;-79
2022/11/04 10:47:32;;;;;;;4.30;2.13;;;19.60;99.90;;;;;;4990649;28;20371;-79
2022/11/04 10:50:29;;;;;;;5.43;1.23;;;19.60;99.90;;;;;;4993726;28;20085;-78
2022/11/04 10:53:08;;;;;;;5.75;1.30;;;18.80;99.90;;;;;;4987846;28;20590;-78
2022/11/04 10:56:23;;;;;;;4.90;1.27;;;17.90;99.90;;;;;;4988274;28;20168;-78
2022/11/04 10:58:52;;;;;;;3.85;1.58;;;17.50;99.90;;;;;;4993837;28;20110;-77
2022/11/04 11:01:25;;;;;;;6.00;1.52;;;16.90;99.90;;;;;;4989435;28;20051;-77
2022/11/04 11:03:55;;;;;;;5.78;1.48;;;16.60;99.90;;;;;;4990189;28;20096;-78
2022/11/04 11:06:31;;;;;;;5.25;1.67;;;16.30;99.90;;;;;;4989012;28;20042;-78
2022/11/04 11:09:13;;;;;;;4.43;1.75;;;16.30;99.90;;;;;;4987619;28;20042;-78
2022/11/04 11:11:49;;;;;;;5.22;1.20;;;16.60;99.90;;;;;;4988436;28;20081;-78
2022/11/04 11:14:27;;;;;;;5.57;1.52;;;17.70;99.90;;;;;;4990195;28;20093;-79
2022/11/04 11:16:53;;;;;;;4.80;1.73;;;18.70;99.90;;;;;;4990975;28;20042;-79
2022/11/04 11:19:21;;;;;;;7.05;3.97;;;19.50;99.90;;;;;;4985054;28;20049;-79
2022/11/04 11:22:12;;;;;;;5.05;1.80;;;20.80;99.90;;;;;;4990368;28;20473;-79
2022/11/04 11:24:38;;;;;;;3.60;1.45;;;22.10;99.90;;;;;;4987646;28;20428;-79
2022/11/04 11:27:15;;;;;;;6.93;2.83;;;21.80;99.90;;;;;;4988218;28;20505;-79
2022/11/04 11:29:41;;;;;;;4.55;2.42;;;20.70;99.00;;;;;;4991130;28;20129;-79
2022/11/04 11:32:32;;;;;;;6.10;2.92;;;19.70;99.90;;;;;;4990128;28;20140;-79
2022/11/04 11:35:00;;;;;;;5.38;1.45;;;18.80;99.90;;;;;;4988581;28;20042;-78
2022/11/04 11:37:30;;;;;;;5.13;1.60;;;18.20;99.90;;;;;;4993292;28;20168;-78
2022/11/04 11:39:56;;;;;;;5.43;1.75;;;18.80;99.90;;;;;;4989597;28;20046;-78
2022/11/04 11:42:23;;;;;;;6.65;2.30;;;20.50;99.90;;;;;;4989909;28;20187;-79
2022/11/04 11:44:54;;;;;;;5.38;1.58;;;22.10;99.90;;;;;;4989265;28;20042;-79
2022/11/04 11:47:27;;;;;;;6.97;1.85;;;23.40;96.30;;;;;;4986204;28;20500;-79
2022/11/04 11:50:14;;;;;;;5.57;1.48;;;24.00;95.90;;;;;;4988921;28;20099;-78
2022/11/04 11:52:45;;;;;;;4.18;1.20;;;24.40;95.00;;;;;;4988789;28;20050;-79
2022/11/04 11:55:10;;;;;;;4.68;1.65;;;25.00;96.30;;;;;;4988100;28;20039;-79
2022/11/04 11:57:48;;;;;;;6.00;1.35;;;25.60;95.90;;;;;;4988105;28;20057;-78
2022/11/04 12:00:27;;;;;;;5.53;1.40;;;26.10;94.90;;;;;;4986821;28;20117;-78
2022/11/04 12:03:20;;;;;;;4.35;1.50;;;26.40;93.30;;;;;;4988586;28;20068;-78
2022/11/04 12:05:57;;;;;;;6.32;1.00;;;26.40;91.50;;;;;;5009699;28;20047;-79
2022/11/04 12:08:49;;;;;;;4.70;1.10;;;26.00;91.10;;;;;;4991492;28;20042;-79
2022/11/04 12:11:20;;;;;;;3.97;1.30;;;26.10;89.30;;;;;;4986518;28;20061;-79
2022/11/04 12:14:17;;;;;;;6.65;1.40;;;26.00;86.80;;;;;;4989150;28;20062;-79
2022/11/04 12:16:45;;;;;;;;;;;25.40;88.60;;;;;;4987750;28;20034;-78
2022/11/04 12:19:17;;;;;;;7.13;1.77;;;25.50;88.30;;;;;;4987703;28;19929;-77
2022/11/04 12:21:56;;;;;;;5.30;1.85;;;25.30;89.80;;;;;;5021134;28;20050;-78
2022/11/04 12:24:54;;;;;;;3.70;1.17;;;25.70;90.30;;;;;;4989465;28;20486;-78
2022/11/04 12:27:36;;;;;;;6.32;1.67;;;26.00;87.30;;;;;;4987082;28;20050;-79
2022/11/04 12:30:12;;;;;;;4.80;1.15;;;25.90;87.50;;;;;;4989396;28;20045;-77
2022/11/04 12:32:59;;;;;;;3.95;1.30;;;25.80;86.30;;;;;;4991233;28;20034;-81
2022/11/04 12:35:51;;;;;;;6.18;1.80;;;25.70;89.40;;;;;;4989213;28;20393;-79
2022/11/04 12:38:41;;;;;;;7.22;1.83;;;25.50;87.10;;;;;;5013291;28;20517;-84
2022/11/04 12:41:20;;;;;;;4.43;1.33;;;25.40;88.20;;;;;;4989246;28;20041;-80
2022/11/04 12:43:48;;;;;;;5.32;1.30;;;25.40;87.50;;;;;;4989848;28;20035;-81
2022/11/04 12:46:23;;;;;;;4.63;1.40;;;25.30;86.20;;;;;;4990915;28;20478;-78
2022/11/04 12:49:02;;;;;;;5.40;1.23;;;24.80;88.30;;;;;;5001894;28;20374;-86
2022/11/04 12:51:33;;;;;;;5.53;1.40;;;24.20;86.50;;;;;;4993209;28;20054;-77
2022/11/04 12:54:33;;;;;;;4.22;1.30;;;24.20;90.00;;;;;;4992745;28;20125;-77
2022/11/04 12:57:31;;;;;;;4.70;1.00;;;24.10;90.30;;;;;;4988967;28;20050;-76
2022/11/04 13:00:02;;;;;;;5.32;1.50;;;23.20;89.80;;;;;;4992179;28;20408;-76
2022/11/04 13:02:35;;;;;;;4.63;1.10;;;22.70;91.20;;;;;;4993823;28;20053;-76
2022/11/04 13:05:24;;;;;;;4.85;0.98;;;22.20;90.60;;;;;;4991138;28;20481;-76
2022/11/04 13:07:59;;;;;;;5.05;1.08;;;21.80;90.30;;;;;;4992803;28;20048;-82
2022/11/04 13:10:46;;;;;;;4.63;1.27;;;21.30;92.20;;;;;;4990342;28;20047;-77
2022/11/04 13:13:15;;;;;;;7.85;1.50;;;20.70;92.00;;;;;;5014850;28;20063;-76
2022/11/04 13:15:51;;;;;;;5.30;1.13;;;20.20;93.20;;;;;;4996584;28;20054;-74
2022/11/04 13:18:21;;;;;;;3.70;1.20;;;19.80;93.10;;;;;;4991022;28;20054;-74
2022/11/04 13:21:24;;;;;;;5.78;1.38;;;19.10;93.70;;;;;;4991298;28;20041;-75
2022/11/04 13:24:05;;;;;;;6.25;1.42;;;18.30;94.30;;;;;;4997145;28;20383;-74
2022/11/04 13:26:31;;;;;;;3.97;1.10;;;17.80;95.00;;;;;;4983855;28;20053;-74
2022/11/04 13:29:11;;;;;;;3.67;1.00;;;17.30;96.00;;;;;;5014192;28;20050;-74
2022/11/04 13:32:00;;;;;;;6.05;1.05;;;17.10;96.30;;;;;;4997120;28;20726;-74
2022/11/04 13:34:44;;;;;;;9.55;1.65;;;16.90;97.20;;;;;;5006838;28;20042;-75
2022/11/04 13:37:28;;;;;;;4.85;1.13;;;16.70;97.00;;;;;;4988735;28;20149;-74
2022/11/04 13:40:02;;;;;;;5.72;1.13;;;16.40;97.80;;;;;;4990642;28;20045;-75
2022/11/04 13:45:53;;;;;;;5.32;2.00;;;16.20;98.20;;;;;;4991501;28;20058;-74
2022/11/04 13:48:21;;;;;;;6.47;1.75;;;16.10;97.80;;;;;;4989761;28;20050;-73
2022/11/04 13:51:08;;;;;;;4.47;2.03;;;16.00;98.30;;;;;;4993409;28;20530;-72
2022/11/04 13:53:50;;;;;;;6.07;1.20;;;15.90;98.40;;;;;;4989156;28;20088;-74
2022/11/04 13:56:37;;;;;;;4.82;1.42;;;15.70;99.10;;;;;;4990704;28;20046;-73
2022/11/04 13:59:27;;;;;;;3.75;0.90;;;15.50;99.00;;;;;;4992156;28;20080;-75
2022/11/04 14:02:13;;;;;;;4.47;1.10;;;15.30;99.10;;;;;;4986439;28;20091;-72
2022/11/04 14:04:41;;;;;;;5.45;1.23;;;15.10;99.60;;;;;;4994475;28;20111;-73
2022/11/04 14:07:10;;;;;;;4.97;1.10;;;14.90;99.90;;;;;;4996384;28;20046;-73